Time;durP1;ratioP1;P1;durP2;ratioP2;P2;SDS_P1;SDS_P2;PMS_P1;PMS_P2;Temp;Humidity;BMP_temperature;BMP_pressure;BME280_temperature;BME280_humidity;BME280_pressure;Samples;Min_cycle;Max_cycle;Signal;HPM_P1;HPM_P2
2022/09/19 00:01:16;;;;;;;0.65;0.60;;;;;;;9.77;92.22;98696.03;4172088;28;20681;-45
2022/09/19 00:03:18;;;;;;;0.65;0.65;;;;;;;9.70;92.42;98698.91;4169471;28;20220;-45
2022/09/19 00:05:20;;;;;;;0.80;0.80;;;;;;;9.70;92.62;98695.34;4184546;28;20213;-45
2022/09/19 00:07:21;;;;;;;0.60;0.60;;;;;;;9.61;92.61;98703.06;4177611;28;20206;-45
2022/09/19 00:09:28;;;;;;;0.60;0.60;;;;;;;9.65;92.81;98698.78;4153330;28;20785;-45
2022/09/19 00:11:29;;;;;;;1.00;0.60;;;;;;;9.68;92.90;98698.31;4160514;28;20637;-45
2022/09/19 00:13:32;;;;;;;0.55;0.55;;;;;;;9.61;93.10;98696.78;4175264;28;20327;-45
2022/09/19 00:15:36;;;;;;;0.55;0.55;;;;;;;9.64;92.90;98701.75;4170467;28;20208;-45
2022/09/19 00:17:37;;;;;;;0.80;0.80;;;;;;;9.60;92.90;98701.41;4183041;28;20825;-45
2022/09/19 00:19:39;;;;;;;0.60;0.60;;;;;;;9.63;93.26;98705.56;4186109;28;20267;-46
2022/09/19 00:21:43;;;;;;;0.50;0.50;;;;;;;9.63;93.13;98711.84;4171373;28;20691;-45
2022/09/19 00:26:11;;;;;;;0.70;0.70;;;;;;;9.66;93.15;98714.13;4169760;28;20215;-45
2022/09/19 00:28:18;;;;;;;0.60;0.60;;;;;;;9.59;92.67;98721.59;4169293;28;20208;-45
2022/09/19 00:30:20;;;;;;;0.82;0.82;;;;;;;9.60;92.91;98716.97;4153864;28;20299;-45
2022/09/19 00:32:23;;;;;;;0.65;0.60;;;;;;;9.57;92.95;98722.91;4182488;28;20223;-45
2022/09/19 00:34:25;;;;;;;1.95;0.75;;;;;;;9.52;93.06;98714.59;4154455;28;20649;-46
2022/09/19 00:36:27;;;;;;;0.63;0.63;;;;;;;9.44;93.39;98717.69;4158741;28;20292;-45
2022/09/19 00:38:30;;;;;;;0.50;0.50;;;;;;;9.45;93.17;98720.19;4156112;28;20201;-45
2022/09/19 00:40:31;;;;;;;0.70;0.70;;;;;;;9.27;94.05;98716.72;4168839;28;20324;-46
2022/09/19 00:42:34;;;;;;;0.60;0.60;;;;;;;9.33;93.79;98705.69;4169927;28;20224;-45
2022/09/19 00:44:36;;;;;;;0.70;0.70;;;;;;;9.36;93.52;98707.13;4154843;28;20209;-45
2022/09/19 00:46:37;;;;;;;1.02;0.93;;;;;;;9.38;93.65;98713.19;4167054;28;20211;-45
2022/09/19 00:48:41;;;;;;;0.75;0.75;;;;;;;9.37;93.71;98700.59;4178148;28;20204;-45
2022/09/19 00:50:48;;;;;;;0.60;0.60;;;;;;;9.32;94.15;98714.13;4182685;28;20212;-45
2022/09/19 00:52:53;;;;;;;0.77;0.60;;;;;;;9.27;94.16;98711.25;4139042;28;20293;-45
2022/09/19 00:54:56;;;;;;;0.95;0.70;;;;;;;9.32;94.02;98703.19;4166359;28;20295;-45
2022/09/19 00:56:59;;;;;;;0.90;0.68;;;;;;;9.23;94.46;98716.38;4154306;28;20224;-45
2022/09/19 00:59:01;;;;;;;1.10;1.00;;;;;;;9.26;94.29;98718.63;4149066;28;20232;-45
2022/09/19 01:01:03;;;;;;;1.02;0.80;;;;;;;9.12;95.30;98719.94;4172102;28;20216;-44
2022/09/19 01:03:09;;;;;;;0.60;0.60;;;;;;;8.99;95.94;98719.31;4183423;28;20876;-45
2022/09/19 01:05:11;;;;;;;0.80;0.80;;;;;;;9.13;95.56;98720.75;4148514;28;20210;-45
2022/09/19 01:07:30;;;;;;;0.70;0.70;;;;;;;9.26;94.63;98715.91;4155141;28;20205;-44
2022/09/19 01:10:00;;;;;;;2.15;0.90;;;;;;;9.20;94.88;98719.59;4182693;28;20315;-45
2022/09/19 01:12:44;;;;;;;0.70;0.70;;;;;;;9.21;94.87;98717.69;4123161;28;20432;-44
2022/09/19 01:14:51;;;;;;;1.95;0.70;;;;;;;9.14;95.47;98722.44;4166767;28;20715;-45
2022/09/19 01:17:06;;;;;;;0.80;0.80;;;;;;;9.09;95.23;98730.50;4169566;28;20200;-45
2022/09/19 01:19:37;;;;;;;2.30;0.80;;;;;;;9.07;95.39;98732.59;4157856;28;20220;-45
2022/09/19 01:21:52;;;;;;;0.95;0.93;;;;;;;9.11;95.74;98736.53;4160006;28;20230;-45
2022/09/19 01:23:59;;;;;;;0.73;0.73;;;;;;;9.08;95.41;98734.31;4181733;28;20562;-45
2022/09/19 01:26:06;;;;;;;0.95;0.73;;;;;;;9.13;94.98;98727.06;4169087;28;20287;-45
2022/09/19 01:28:35;;;;;;;1.58;0.73;;;;;;;9.15;95.27;98735.03;4159770;28;20239;-46
2022/09/19 01:30:42;;;;;;;0.70;0.70;;;;;;;9.11;95.80;98722.91;4178632;28;20211;-45
2022/09/19 01:33:17;;;;;;;0.77;0.77;;;;;;;9.15;95.56;98726.84;4171654;28;20381;-45
2022/09/19 01:35:25;;;;;;;1.17;0.90;;;;;;;9.13;95.39;98731.66;4145842;28;20260;-45
2022/09/19 01:37:42;;;;;;;1.33;0.75;;;;;;;8.92;95.97;98734.97;4159122;28;21239;-45
2022/09/19 01:39:46;;;;;;;2.90;0.80;;;;;;;9.02;96.09;98741.50;4173222;28;20255;-46
2022/09/19 01:41:51;;;;;;;0.98;0.90;;;;;;;9.02;96.36;98740.69;4173103;28;20768;-45
2022/09/19 01:43:53;;;;;;;0.80;0.80;;;;;;;9.04;96.17;98738.56;4173754;28;20235;-47
2022/09/19 01:45:58;;;;;;;2.20;0.82;;;;;;;9.15;95.46;98740.47;4191800;28;20310;-45
2022/09/19 01:48:09;;;;;;;1.02;0.90;;;;;;;8.97;95.95;98748.75;4171328;28;20211;-44
2022/09/19 01:50:16;;;;;;;0.80;0.70;;;;;;;8.91;96.48;98745.06;4157137;28;20711;-45
2022/09/19 01:52:52;;;;;;;2.85;1.00;;;;;;;9.02;95.98;98751.63;4173864;28;20725;-44
2022/09/19 01:55:15;;;;;;;4.13;0.95;;;;;;;9.11;95.47;98751.03;4172915;28;20226;-44
2022/09/19 01:58:06;;;;;;;2.10;1.35;;;;;;;9.11;95.47;98761.97;4153630;28;20216;-45
2022/09/19 02:00:15;;;;;;;0.73;0.70;;;;;;;8.91;96.40;98755.13;4170258;28;20270;-45
2022/09/19 02:02:22;;;;;;;5.03;0.90;;;;;;;8.98;95.92;98751.25;4178839;28;20234;-46
2022/09/19 02:04:30;;;;;;;1.90;0.80;;;;;;;9.00;96.16;98761.91;4188812;28;20234;-45
2022/09/19 02:06:42;;;;;;;1.58;0.80;;;;;;;8.95;96.19;98759.06;4189990;28;20711;-45
2022/09/19 02:09:06;;;;;;;1.85;1.00;;;;;;;9.02;95.81;98768.00;4176929;28;20262;-45
2022/09/19 02:11:19;;;;;;;0.90;0.90;;;;;;;9.01;96.04;98763.59;4179419;28;20196;-45
2022/09/19 02:13:24;;;;;;;2.55;0.90;;;;;;;9.07;95.70;98763.47;4155198;28;20194;-45
2022/09/19 02:15:30;;;;;;;1.25;1.13;;;;;;;9.02;95.90;98766.06;4160088;28;20750;-45
2022/09/19 02:17:44;;;;;;;0.77;0.77;;;;;;;8.98;95.60;98772.25;4191500;28;20266;-45
2022/09/19 02:19:54;;;;;;;1.75;1.25;;;;;;;8.98;95.88;98766.78;4153681;28;20225;-45
2022/09/19 02:22:21;;;;;;;2.60;1.13;;;;;;;9.03;95.75;98775.91;4172488;28;20684;-50
2022/09/19 02:24:27;;;;;;;1.27;0.88;;;;;;;8.94;95.77;98765.59;4153954;28;20225;-45
2022/09/19 02:26:30;;;;;;;1.00;0.80;;;;;;;8.99;95.98;98772.00;4187014;28;20208;-45
2022/09/19 02:28:38;;;;;;;2.10;1.13;;;;;;;8.80;96.29;98762.22;4160420;28;20209;-45
2022/09/19 02:30:42;;;;;;;1.40;0.88;;;;;;;8.90;95.95;98764.41;4156762;28;20212;-45
2022/09/19 02:32:49;;;;;;;2.60;0.90;;;;;;;8.84;96.33;98770.78;4172587;28;20251;-45
2022/09/19 02:34:53;;;;;;;3.10;0.80;;;;;;;8.97;96.02;98770.56;4157297;28;20291;-45
2022/09/19 02:37:39;;;;;;;1.35;0.73;;;;;;;8.88;95.95;98772.00;4155874;28;20304;-45
2022/09/19 02:39:41;;;;;;;0.77;0.75;;;;;;;8.92;95.79;98774.00;4141732;28;20282;-46
2022/09/19 02:42:18;;;;;;;0.98;0.70;;;;;;;8.87;95.55;98775.75;4191228;28;20703;-45
2022/09/19 02:44:23;;;;;;;2.08;0.80;;;;;;;8.72;96.27;98769.91;4156095;28;20232;-44
2022/09/19 02:46:37;;;;;;;1.00;0.70;;;;;;;8.71;95.66;98771.81;4156700;28;20211;-45
2022/09/19 02:48:46;;;;;;;1.73;0.85;;;;;;;8.73;96.74;98777.03;4144315;28;20566;-45
2022/09/19 02:51:09;;;;;;;6.20;0.88;;;;;;;8.65;97.16;98771.91;4165089;28;20208;-45
2022/09/19 02:53:18;;;;;;;2.58;0.82;;;;;;;8.72;97.03;98773.47;4155002;28;20284;-45
2022/09/19 02:55:31;;;;;;;2.55;0.80;;;;;;;8.74;96.50;98775.97;4154042;28;20222;-45
2022/09/19 02:57:34;;;;;;;0.80;0.80;;;;;;;8.66;96.67;98773.56;4155108;28;20292;-46
2022/09/19 02:59:39;;;;;;;0.80;0.73;;;;;;;8.64;96.29;98789.31;4178669;28;20752;-44
2022/09/19 03:01:44;;;;;;;1.58;1.10;;;;;;;8.82;95.96;98783.84;4152822;28;20651;-45
2022/09/19 03:06:14;;;;;;;1.02;0.90;;;;;;;8.71;96.18;98788.19;4166539;28;20318;-45
2022/09/19 03:08:17;;;;;;;1.63;0.77;;;;;;;8.73;96.07;98780.59;4171940;28;20294;-46
2022/09/19 03:10:25;;;;;;;2.60;1.10;;;;;;;8.53;96.13;98781.91;4158337;28;20227;-45
2022/09/19 03:12:39;;;;;;;2.33;0.80;;;;;;;8.56;96.15;98784.22;4176907;28;20291;-45
2022/09/19 03:14:41;;;;;;;1.35;0.85;;;;;;;8.61;96.81;98787.09;4140452;28;20296;-45
2022/09/19 03:16:47;;;;;;;1.00;0.80;;;;;;;8.56;96.26;98790.47;4151563;28;20232;-45
2022/09/19 03:18:54;;;;;;;1.83;0.98;;;;;;;8.52;96.48;98783.00;4170911;28;20231;-45
2022/09/19 03:21:04;;;;;;;3.08;1.10;;;;;;;8.46;96.79;98784.75;4156465;28;20659;-45
2022/09/19 03:23:07;;;;;;;4.85;0.88;;;;;;;8.53;96.74;98792.81;4171445;28;20291;-46
2022/09/19 03:25:10;;;;;;;2.42;1.27;;;;;;;8.62;96.23;98788.75;4160610;28;20726;-45
2022/09/19 03:27:12;;;;;;;1.00;0.80;;;;;;;8.55;95.86;98788.00;4155455;28;20284;-45
2022/09/19 03:29:15;;;;;;;3.95;0.85;;;;;;;8.55;96.50;98788.81;4157183;28;20307;-45
2022/09/19 03:31:17;;;;;;;1.15;0.95;;;;;;;8.55;95.79;98799.72;4155393;28;20291;-45
2022/09/19 03:33:19;;;;;;;1.08;0.98;;;;;;;8.60;96.07;98801.75;4158070;28;20213;-44
2022/09/19 03:35:22;;;;;;;2.03;0.93;;;;;;;8.58;95.79;98799.28;4160638;28;20253;-44
2022/09/19 03:37:23;;;;;;;1.80;1.00;;;;;;;8.61;96.06;98792.53;4189303;28;20200;-45
2022/09/19 03:39:25;;;;;;;1.50;1.00;;;;;;;8.57;95.79;98802.22;4153398;28;20229;-44
2022/09/19 03:41:29;;;;;;;1.00;1.00;;;;;;;8.61;95.80;98803.44;4159964;28;20287;-44
2022/09/19 03:43:31;;;;;;;3.80;1.23;;;;;;;8.51;95.73;98803.16;4187637;28;20229;-44
2022/09/19 03:45:33;;;;;;;1.02;0.93;;;;;;;8.41;96.79;98802.88;4187657;28;20238;-45
2022/09/19 03:47:34;;;;;;;2.85;0.80;;;;;;;8.32;97.22;98804.22;4168814;28;20244;-45
2022/09/19 03:49:36;;;;;;;2.45;0.70;;;;;;;8.36;97.05;98800.00;4169156;28;20224;-45
2022/09/19 03:51:38;;;;;;;3.58;1.20;;;;;;;8.34;96.86;98802.13;4186104;28;20732;-45
2022/09/19 03:53:43;;;;;;;2.78;0.98;;;;;;;8.43;97.00;98806.19;4173148;28;20296;-46
2022/09/19 03:55:46;;;;;;;1.13;1.00;;;;;;;8.39;96.95;98804.97;4161437;28;20291;-44
2022/09/19 03:57:48;;;;;;;1.50;0.85;;;;;;;8.39;96.40;98804.97;4161882;28;20197;-45
2022/09/19 03:59:50;;;;;;;3.38;1.10;;;;;;;8.37;96.70;98807.09;4175042;28;20228;-44
2022/09/19 04:01:54;;;;;;;1.98;1.00;;;;;;;8.42;96.74;98810.00;4154247;28;20323;-46
2022/09/19 04:03:59;;;;;;;2.65;1.27;;;;;;;8.41;96.52;98808.31;4154850;28;20231;-44
2022/09/19 04:06:02;;;;;;;3.70;1.40;;;;;;;8.43;96.27;98817.09;4156369;28;20634;-46
2022/09/19 04:08:03;;;;;;;0.93;0.73;;;;;;;8.39;96.88;98818.59;4168575;28;20601;-45
2022/09/19 04:10:06;;;;;;;4.68;1.88;;;;;;;8.37;96.57;98818.00;4169379;28;20273;-45
2022/09/19 04:12:08;;;;;;;2.28;1.15;;;;;;;8.32;97.27;98821.44;4153775;28;20671;-45
2022/09/19 04:14:10;;;;;;;2.97;0.90;;;;;;;8.27;98.01;98824.00;4160465;28;20244;-45
2022/09/19 04:16:11;;;;;;;2.70;1.05;;;;;;;8.31;97.63;98821.66;4153484;28;20292;-45
2022/09/19 04:18:14;;;;;;;4.15;1.70;;;;;;;8.31;97.76;98819.78;4170696;28;20200;-45
2022/09/19 04:20:15;;;;;;;2.25;1.05;;;;;;;8.30;97.66;98820.81;4186798;28;20739;-44
2022/09/19 04:22:19;;;;;;;3.28;1.25;;;;;;;8.31;99.02;98824.38;4170017;28;20259;-45
2022/09/19 04:24:21;;;;;;;3.28;1.02;;;;;;;8.36;98.73;98822.63;4160336;28;20845;-45
2022/09/19 04:26:24;;;;;;;1.50;1.10;;;;;;;8.29;99.49;98826.50;4159817;28;20197;-45
2022/09/19 04:28:26;;;;;;;1.98;1.30;;;;;;;8.31;99.40;98824.38;4167667;28;20210;-46
2022/09/19 04:30:28;;;;;;;2.25;1.38;;;;;;;8.40;99.04;98828.44;4156904;28;20239;-43
2022/09/19 04:32:30;;;;;;;1.27;1.00;;;;;;;8.37;99.43;98823.47;4182829;28;20207;-45
2022/09/19 04:34:32;;;;;;;1.23;1.08;;;;;;;8.39;99.43;98821.34;4185772;28;20203;-45
2022/09/19 04:36:34;;;;;;;3.58;1.80;;;;;;;8.35;98.98;98822.88;4155391;28;20655;-46
2022/09/19 04:38:36;;;;;;;2.85;1.05;;;;;;;8.50;98.73;98826.03;4153172;28;20212;-44
2022/09/19 04:40:48;;;;;;;2.85;1.67;;;;;;;8.50;99.21;98828.75;4153962;28;20356;-45
2022/09/19 04:42:50;;;;;;;3.05;1.08;;;;;;;8.48;98.82;98833.63;4166741;28;20205;-44
2022/09/19 04:44:54;;;;;;;1.35;1.15;;;;;;;8.44;98.57;98835.13;4152144;28;20651;-45
2022/09/19 04:46:56;;;;;;;3.60;1.30;;;;;;;8.46;98.84;98843.91;4159950;28;20319;-45
2022/09/19 04:48:59;;;;;;;2.30;1.00;;;;;;;8.38;99.15;98836.03;4154804;28;20271;-45
2022/09/19 04:51:04;;;;;;;1.15;1.02;;;;;;;8.43;99.14;98845.19;4160238;28;20217;-45
2022/09/19 04:53:07;;;;;;;2.13;1.50;;;;;;;8.49;98.90;98843.47;4183573;28;20196;-45
2022/09/19 04:55:09;;;;;;;1.70;0.93;;;;;;;8.49;98.41;98849.72;4184508;28;20293;-45
2022/09/19 04:57:11;;;;;;;2.42;1.05;;;;;;;8.48;98.57;98839.88;4189594;28;20203;-45
2022/09/19 04:59:12;;;;;;;8.55;1.35;;;;;;;8.53;98.73;98848.22;4153279;28;20222;-45
2022/09/19 05:01:14;;;;;;;4.10;1.10;;;;;;;8.47;98.69;98845.56;4169061;28;20279;-45
2022/09/19 05:03:17;;;;;;;2.35;2.00;;;;;;;8.53;98.98;98845.50;4168436;28;20291;-45
2022/09/19 05:05:18;;;;;;;3.03;1.52;;;;;;;8.47;99.42;98856.47;4151895;28;20225;-45
2022/09/19 05:07:33;;;;;;;1.67;0.95;;;;;;;8.38;99.49;98846.94;4182523;28;20199;-45
2022/09/19 05:09:35;;;;;;;2.42;1.13;;;;;;;8.40;99.35;98855.72;4157689;28;20228;-45
2022/09/19 05:11:40;;;;;;;3.33;1.23;;;;;;;8.47;99.66;98853.75;4167206;28;20321;-45
2022/09/19 05:13:41;;;;;;;1.10;0.95;;;;;;;8.44;99.46;98862.38;4155932;28;20211;-45
2022/09/19 05:15:44;;;;;;;2.42;1.00;;;;;;;8.37;99.77;98856.19;4155832;28;20200;-45
2022/09/19 05:17:47;;;;;;;2.55;0.98;;;;;;;8.39;99.36;98862.22;4150046;28;20208;-44
2022/09/19 05:19:49;;;;;;;4.75;1.70;;;;;;;8.37;99.90;98873.38;4167010;28;20223;-45
2022/09/19 05:21:51;;;;;;;4.97;1.50;;;;;;;8.30;99.41;98871.78;4167937;28;20236;-44
2022/09/19 05:23:52;;;;;;;1.88;1.02;;;;;;;8.37;99.57;98864.38;4184978;28;20212;-45
2022/09/19 05:25:54;;;;;;;2.47;1.20;;;;;;;8.38;99.49;98868.75;4152305;28;20201;-46
2022/09/19 05:28:06;;;;;;;2.40;1.33;;;;;;;8.42;99.63;98864.53;4184217;28;20204;-45
2022/09/19 05:30:08;;;;;;;2.25;1.30;;;;;;;8.39;99.90;98875.88;4159359;28;20399;-45
2022/09/19 05:32:10;;;;;;;1.40;1.30;;;;;;;8.41;99.85;98880.03;4154831;28;20738;-45
2022/09/19 05:34:13;;;;;;;1.70;1.35;;;;;;;8.36;100.00;98882.59;4154154;28;20205;-45
2022/09/19 05:36:15;;;;;;;1.50;0.95;;;;;;;8.46;100.00;98882.94;4154852;28;20268;-45
2022/09/19 05:38:16;;;;;;;3.20;1.55;;;;;;;8.39;100.00;98886.78;4170429;28;20253;-45
2022/09/19 05:40:19;;;;;;;2.25;1.20;;;;;;;8.45;100.00;98885.88;4154008;28;20233;-45
2022/09/19 05:42:20;;;;;;;2.72;1.45;;;;;;;8.37;100.00;98887.03;4183390;28;20275;-46
2022/09/19 05:44:22;;;;;;;3.85;1.50;;;;;;;8.43;100.00;98882.53;4156881;28;20231;-45
2022/09/19 05:46:24;;;;;;;4.57;1.50;;;;;;;8.53;100.00;98886.41;4153701;28;20304;-45
2022/09/19 05:48:31;;;;;;;3.78;1.40;;;;;;;8.50;100.00;98883.31;4154317;28;20204;-45
2022/09/19 05:50:34;;;;;;;2.63;1.52;;;;;;;8.51;100.00;98882.22;4157462;28;20283;-45
2022/09/19 05:54:57;;;;;;;2.97;1.17;;;;;;;8.52;100.00;98892.06;4157235;28;20746;-44
2022/09/19 05:57:00;;;;;;;1.92;1.55;;;;;;;8.58;100.00;98891.16;4157085;28;20228;-44
2022/09/19 05:59:02;;;;;;;4.00;2.17;;;;;;;8.61;100.00;98897.00;4157499;28;20255;-45
2022/09/19 06:01:06;;;;;;;1.88;1.25;;;;;;;8.52;100.00;98895.66;4158264;28;20213;-45
2022/09/19 06:03:11;;;;;;;2.22;1.55;;;;;;;8.61;100.00;98890.72;4169302;28;20212;-45
2022/09/19 06:05:13;;;;;;;4.45;1.60;;;;;;;8.61;100.00;98888.00;4159542;28;20673;-46
2022/09/19 06:07:15;;;;;;;2.90;1.50;;;;;;;8.67;99.59;98896.09;4158533;28;20754;-45
2022/09/19 06:09:16;;;;;;;1.92;1.52;;;;;;;8.79;99.90;98893.41;4182054;28;20953;-45
2022/09/19 06:11:18;;;;;;;6.72;1.73;;;;;;;8.73;100.00;98900.63;4159291;28;20243;-46
2022/09/19 06:13:22;;;;;;;2.35;1.67;;;;;;;8.92;100.00;98909.63;4153410;28;20336;-45
2022/09/19 06:15:23;;;;;;;2.85;1.95;;;;;;;9.08;100.00;98901.63;4182683;28;20230;-45
2022/09/19 06:17:28;;;;;;;4.78;2.13;;;;;;;9.25;100.00;98902.66;4159141;28;20295;-45
2022/09/19 06:19:30;;;;;;;5.63;1.50;;;;;;;9.47;100.00;98902.94;4143384;28;20739;-46
2022/09/19 06:21:31;;;;;;;7.03;1.88;;;;;;;9.54;100.00;98906.44;4161144;28;20241;-45
2022/09/19 06:23:33;;;;;;;3.90;2.03;;;;;;;10.10;100.00;98912.22;4153748;28;20574;-46
2022/09/19 06:25:36;;;;;;;6.53;2.63;;;;;;;10.13;98.25;98915.31;4155071;28;20365;-46
2022/09/19 06:27:39;;;;;;;4.70;1.30;;;;;;;10.31;97.10;98919.84;4161710;28;20348;-46
2022/09/19 06:29:40;;;;;;;2.65;1.42;;;;;;;10.59;98.70;98922.66;4151464;28;20232;-46
2022/09/19 06:31:42;;;;;;;4.95;1.50;;;;;;;10.87;93.99;98922.75;4167026;28;20266;-45
2022/09/19 06:33:44;;;;;;;2.42;1.63;;;;;;;11.10;93.72;98929.81;4156907;28;20791;-45
2022/09/19 06:35:47;;;;;;;1.98;1.17;;;;;;;10.76;93.72;98934.53;4158635;28;20291;-46
2022/09/19 06:37:49;;;;;;;6.40;1.63;;;;;;;10.45;94.09;98934.94;4159711;28;20266;-45
2022/09/19 06:39:50;;;;;;;5.28;1.40;;;;;;;10.26;95.20;98930.66;4154911;28;20606;-45
2022/09/19 06:41:54;;;;;;;3.85;1.35;;;;;;;10.56;96.49;98943.13;4147112;28;20348;-45
2022/09/19 06:43:56;;;;;;;3.63;2.00;;;;;;;10.97;95.13;98946.50;4157676;28;20295;-45
2022/09/19 06:45:58;;;;;;;4.32;1.60;;;;;;;11.29;93.21;98946.88;4152757;28;20351;-46
2022/09/19 06:48:00;;;;;;;3.03;1.90;;;;;;;11.22;92.87;98948.94;4157507;28;20705;-45
2022/09/19 06:50:03;;;;;;;4.43;3.30;;;;;;;11.34;91.58;98947.00;4183824;28;20232;-45
2022/09/19 06:52:05;;;;;;;3.80;1.45;;;;;;;11.04;92.09;98947.22;4144591;28;20204;-45
2022/09/19 06:54:06;;;;;;;2.05;1.42;;;;;;;10.88;93.50;98947.97;4171541;28;20211;-45
2022/09/19 06:56:08;;;;;;;5.30;1.52;;;;;;;11.00;93.75;98950.69;4167295;28;20204;-45
2022/09/19 06:58:11;;;;;;;4.18;1.70;;;;;;;11.26;91.91;98953.72;4156341;28;20208;-45
2022/09/19 07:00:13;;;;;;;2.50;1.33;;;;;;;11.67;90.76;98953.44;4154527;28;20299;-45
2022/09/19 07:02:15;;;;;;;3.75;2.08;;;;;;;11.99;89.23;98956.47;4189041;28;20880;-45
2022/09/19 07:04:18;;;;;;;2.88;1.15;;;;;;;12.44;86.78;98960.75;4182275;28;20216;-46
2022/09/19 07:06:20;;;;;;;3.38;1.52;;;;;;;12.28;86.46;98956.13;4167775;28;20312;-45
2022/09/19 07:08:21;;;;;;;2.47;1.45;;;;;;;12.40;86.72;98959.63;4170352;28;20212;-45
2022/09/19 07:10:23;;;;;;;3.10;1.33;;;;;;;12.32;87.07;98960.06;4182175;28;20318;-45
2022/09/19 07:12:25;;;;;;;3.38;1.75;;;;;;;12.37;87.13;98959.28;4152251;28;20219;-45
2022/09/19 07:14:27;;;;;;;2.63;1.38;;;;;;;12.46;86.69;98955.88;4184150;28;20206;-45
2022/09/19 07:16:30;;;;;;;4.40;2.05;;;;;;;12.71;85.29;98971.88;4154611;28;20232;-45
2022/09/19 07:18:35;;;;;;;4.18;1.60;;;;;;;12.98;84.79;98965.44;4184960;28;21953;-45
2022/09/19 07:20:37;;;;;;;3.50;1.30;;;;;;;13.28;83.83;98967.72;4150224;28;20288;-46
2022/09/19 07:22:39;;;;;;;2.85;1.52;;;;;;;13.50;83.89;98972.13;4152699;28;20244;-46
2022/09/19 07:24:40;;;;;;;2.88;1.17;;;;;;;12.71;85.01;98971.88;4171520;28;20266;-46
2022/09/19 07:26:42;;;;;;;2.63;1.63;;;;;;;12.80;85.62;98973.09;4160244;28;20205;-46
2022/09/19 07:28:47;;;;;;;1.70;1.20;;;;;;;12.39;86.77;98968.94;4178425;28;20216;-45
2022/09/19 07:31:00;;;;;;;4.10;1.60;;;;;;;12.33;87.21;98978.19;4153392;28;20204;-45
2022/09/19 07:33:03;;;;;;;4.93;1.50;;;;;;;12.85;85.05;98979.50;4152390;28;20742;-46
2022/09/19 07:35:05;;;;;;;3.20;1.30;;;;;;;13.06;85.45;98977.91;4150105;28;20213;-46
2022/09/19 07:37:07;;;;;;;5.72;1.23;;;;;;;13.07;85.27;98982.31;4156953;28;20296;-46
2022/09/19 07:39:09;;;;;;;4.90;1.60;;;;;;;13.11;84.04;98984.28;4151498;28;20311;-46
2022/09/19 07:41:11;;;;;;;1.30;1.08;;;;;;;13.19;85.02;98985.78;4200468;28;20194;-46
2022/09/19 07:43:16;;;;;;;6.13;1.85;;;;;;;13.26;84.22;98987.25;4170862;28;20286;-46
2022/09/19 07:45:18;;;;;;;3.97;1.52;;;;;;;13.14;85.23;98988.44;4166550;28;20224;-46
2022/09/19 07:47:29;;;;;;;4.63;1.95;;;;;;;13.07;84.97;98996.03;4154115;28;20654;-46
2022/09/19 07:49:31;;;;;;;6.70;1.83;;;;;;;13.14;84.47;98989.28;4154922;28;20664;-46
2022/09/19 07:51:33;;;;;;;4.25;1.92;;;;;;;12.94;86.45;98999.13;4157657;28;20663;-46
2022/09/19 07:53:35;;;;;;;5.15;2.00;;;;;;;13.35;85.48;98995.84;4186149;28;20688;-46
2022/09/19 07:55:36;;;;;;;12.38;5.28;;;;;;;13.33;85.17;98998.03;4184385;28;20618;-46
2022/09/19 07:57:38;;;;;;;11.05;3.55;;;;;;;13.38;84.76;98996.19;4184776;28;20200;-46
2022/09/19 07:59:40;;;;;;;2.85;2.40;;;;;;;13.44;85.12;99003.41;4176738;28;20312;-46
2022/09/19 08:01:42;;;;;;;4.45;2.25;;;;;;;13.35;84.71;98996.72;4177047;28;20299;-46
2022/09/19 08:03:44;;;;;;;2.70;1.70;;;;;;;13.43;84.57;98999.00;4167689;28;20666;-46
2022/09/19 08:05:48;;;;;;;7.03;1.75;;;;;;;13.69;83.51;98986.41;4144096;28;20255;-46
2022/09/19 08:07:51;;;;;;;5.22;2.65;;;;;;;14.39;82.48;98993.44;4184702;28;20304;-46
2022/09/19 08:09:53;;;;;;;9.77;2.50;;;;;;;14.94;79.87;99002.09;4155105;28;21096;-46
2022/09/19 08:11:54;;;;;;;8.57;2.65;;;;;;;15.10;78.75;99009.34;4153996;28;20259;-46
2022/09/19 08:13:57;;;;;;;6.53;3.55;;;;;;;15.02;79.25;99004.34;4160547;28;20209;-46
2022/09/19 08:15:59;;;;;;;7.22;1.67;;;;;;;15.44;76.91;98999.63;4156549;28;20296;-47
2022/09/19 08:18:13;;;;;;;9.07;1.40;;;;;;;15.10;77.74;99003.03;4152852;28;20208;-46
2022/09/19 08:20:15;;;;;;;6.20;1.40;;;;;;;14.85;78.13;98994.59;4165778;28;20223;-47
2022/09/19 08:22:16;;;;;;;3.53;1.38;;;;;;;15.34;77.14;99002.34;4151843;28;20615;-47
2022/09/19 08:24:18;;;;;;;4.03;1.17;;;;;;;16.00;76.01;99006.16;4142105;28;20205;-46
2022/09/19 08:26:21;;;;;;;4.07;1.50;;;;;;;15.48;76.27;99003.50;4150686;28;20319;-46
2022/09/19 08:28:22;;;;;;;4.38;1.08;;;;;;;15.51;76.39;99002.16;4167750;28;20204;-46
2022/09/19 08:30:26;;;;;;;6.47;1.42;;;;;;;15.60;76.76;99009.63;4182737;28;20307;-46
2022/09/19 08:32:28;;;;;;;2.78;1.17;;;;;;;15.14;76.77;99006.88;4154615;28;20695;-47
2022/09/19 08:34:30;;;;;;;5.07;1.52;;;;;;;15.66;76.03;99005.81;4156067;28;20331;-46
2022/09/19 08:36:33;;;;;;;2.08;1.27;;;;;;;15.72;75.52;99014.91;4182276;28;20276;-46
2022/09/19 08:38:35;;;;;;;3.67;1.13;;;;;;;15.95;74.11;99014.44;4159011;28;20208;-47
2022/09/19 08:40:39;;;;;;;5.07;1.73;;;;;;;16.14;75.66;99008.13;4185532;28;20673;-46
2022/09/19 08:43:12;;;;;;;4.68;1.15;;;;;;;15.55;74.57;99020.66;4169008;28;20207;-47
2022/09/19 08:45:20;;;;;;;3.65;1.45;;;;;;;15.81;75.88;99025.16;4185162;28;20820;-47
2022/09/19 08:47:24;;;;;;;4.40;1.13;;;;;;;15.87;75.25;99032.34;4153706;28;20204;-47
2022/09/19 08:49:50;;;;;;;4.68;1.30;;;;;;;15.96;76.22;99030.72;4167599;28;20607;-48
2022/09/19 08:52:07;;;;;;;5.95;1.98;;;;;;;15.58;76.99;99033.91;4184444;28;20204;-48
2022/09/19 08:54:16;;;;;;;2.63;1.40;;;;;;;15.87;75.53;99034.28;4158042;28;20244;-47
2022/09/19 08:56:19;;;;;;;4.32;1.23;;;;;;;15.32;77.43;99039.56;4160867;28;20211;-47
2022/09/19 08:58:23;;;;;;;3.65;1.52;;;;;;;15.39;77.23;99034.63;4171513;28;20763;-48
2022/09/19 09:00:30;;;;;;;3.28;1.20;;;;;;;15.17;77.53;99040.28;4152278;28;20220;-47
2022/09/19 09:03:03;;;;;;;5.97;1.63;;;;;;;14.92;78.95;99045.66;4154289;28;20617;-48
2022/09/19 09:05:16;;;;;;;3.67;0.80;;;;;;;15.00;79.87;99050.66;4168096;28;20236;-47
2022/09/19 09:07:30;;;;;;;5.93;1.40;;;;;;;14.83;80.04;99043.63;4145713;28;20288;-47
2022/09/19 09:09:55;;;;;;;6.35;1.48;;;;;;;14.62;80.29;99039.88;4151676;28;20229;-47
2022/09/19 09:12:12;;;;;;;5.13;1.80;;;;;;;14.55;80.16;99042.03;4153198;28;20240;-47
2022/09/19 09:14:26;;;;;;;6.90;1.58;;;;;;;14.39;79.75;99048.50;4184584;28;20887;-47
2022/09/19 09:16:57;;;;;;;2.63;1.20;;;;;;;14.06;80.96;99043.19;4154372;28;20203;-47
2022/09/19 09:19:23;;;;;;;7.35;1.20;;;;;;;14.40;81.57;99050.16;4185602;28;20223;-47
2022/09/19 09:21:46;;;;;;;3.97;1.27;;;;;;;14.55;82.05;99053.06;4159606;28;20280;-47
2022/09/19 09:23:54;;;;;;;6.63;1.20;;;;;;;14.65;80.67;99044.88;4168128;28;20577;-47
2022/09/19 09:26:01;;;;;;;2.80;1.17;;;;;;;14.68;80.20;99041.59;4160495;28;20227;-47
2022/09/19 09:28:18;;;;;;;4.10;1.67;;;;;;;15.10;81.11;99050.69;4184447;28;20195;-48
2022/09/19 09:30:20;;;;;;;3.78;1.52;;;;;;;15.45;79.66;99041.84;4152083;28;20261;-47
2022/09/19 09:32:35;;;;;;;6.78;4.38;;;;;;;15.32;78.06;99053.34;4168447;28;20250;-48
2022/09/19 09:34:40;;;;;;;5.53;2.65;;;;;;;15.10;77.53;99045.19;4171253;28;20340;-47
2022/09/19 09:37:04;;;;;;;5.72;1.75;;;;;;;14.94;79.15;99042.59;4170262;28;20295;-47
2022/09/19 09:39:16;;;;;;;3.72;1.70;;;;;;;14.96;78.50;99043.19;4155655;28;20224;-48
2022/09/19 09:41:45;;;;;;;5.45;1.83;;;;;;;14.88;78.71;99046.41;4149891;28;20292;-47
2022/09/19 09:44:15;;;;;;;2.25;0.93;;;;;;;14.87;78.28;99040.09;4151249;28;20216;-47
2022/09/19 09:46:25;;;;;;;4.65;1.30;;;;;;;14.93;78.12;99041.78;4169361;28;20339;-47
2022/09/19 09:48:32;;;;;;;3.75;1.02;;;;;;;15.55;77.72;99041.91;4183731;28;20221;-47
2022/09/19 09:51:05;;;;;;;5.97;0.85;;;;;;;16.06;75.47;99032.69;4150795;28;20231;-47
2022/09/19 09:53:26;;;;;;;5.63;0.98;;;;;;;16.25;72.85;99029.16;4152859;28;20209;-48
2022/09/19 09:58:28;;;;;;;3.22;0.90;;;;;;;16.98;72.27;99031.41;4171360;28;20300;-48
2022/09/19 10:05:16;;;;;;;2.70;0.90;;;;;;;16.15;72.62;99037.41;4172185;28;20207;-47
2022/09/19 10:07:34;;;;;;;3.35;1.02;;;;;;;15.58;75.38;99036.69;4155978;28;20296;-48
2022/09/19 10:09:39;;;;;;;8.40;1.40;;;;;;;15.49;76.25;99043.78;4155622;28;20320;-48
2022/09/19 10:11:44;;;;;;;3.72;0.85;;;;;;;15.24;78.31;99040.03;4187132;28;20217;-48
2022/09/19 10:14:15;;;;;;;1.50;0.73;;;;;;;15.07;76.88;99040.22;4184021;28;20254;-48
2022/09/19 10:16:18;;;;;;;4.93;1.40;;;;;;;15.06;79.17;99033.06;4156827;28;20205;-47